sensor_id;sensor_type;location;lat;lon;timestamp;P1;durP1;ratioP1;P2;durP2;ratioP2
47483;SDS011;54076;50.322;18.650;2022-11-24T00:02:15;46.40;;;16.30;;
47483;SDS011;54076;50.322;18.650;2022-11-24T00:07:16;45.60;;;16.00;;
47483;SDS011;54076;50.322;18.650;2022-11-24T00:12:17;47.90;;;17.00;;
47483;SDS011;54076;50.322;18.650;2022-11-24T00:17:18;43.60;;;15.70;;
47483;SDS011;54076;50.322;18.650;2022-11-24T00:22:19;47.30;;;17.60;;
47483;SDS011;54076;50.322;18.650;2022-11-24T00:27:20;40.30;;;16.10;;
47483;SDS011;54076;50.322;18.650;2022-11-24T00:32:21;42.80;;;15.70;;
47483;SDS011;54076;50.322;18.650;2022-11-24T00:37:21;45.60;;;15.80;;
47483;SDS011;54076;50.322;18.650;2022-11-24T00:42:22;45.30;;;15.90;;
47483;SDS011;54076;50.322;18.650;2022-11-24T00:47:23;47.10;;;16.00;;
47483;SDS011;54076;50.322;18.650;2022-11-24T00:52:24;46.20;;;15.80;;
47483;SDS011;54076;50.322;18.650;2022-11-24T00:57:25;45.60;;;16.00;;
47483;SDS011;54076;50.322;18.650;2022-11-24T01:02:26;38.30;;;14.60;;
47483;SDS011;54076;50.322;18.650;2022-11-24T01:07:27;41.10;;;15.80;;
47483;SDS011;54076;50.322;18.650;2022-11-24T01:12:28;39.50;;;15.30;;
47483;SDS011;54076;50.322;18.650;2022-11-24T01:17:28;41.10;;;14.50;;
47483;SDS011;54076;50.322;18.650;2022-11-24T01:22:29;39.10;;;15.00;;
47483;SDS011;54076;50.322;18.650;2022-11-24T01:27:30;45.00;;;14.20;;
47483;SDS011;54076;50.322;18.650;2022-11-24T01:32:32;37.10;;;14.20;;
47483;SDS011;54076;50.322;18.650;2022-11-24T01:37:35;38.10;;;14.50;;
47483;SDS011;54076;50.322;18.650;2022-11-24T01:42:47;37.80;;;15.10;;
47483;SDS011;54076;50.322;18.650;2022-11-24T01:47:49;36.90;;;13.20;;
47483;SDS011;54076;50.322;18.650;2022-11-24T01:52:52;41.50;;;15.00;;
47483;SDS011;54076;50.322;18.650;2022-11-24T02:03:37;39.40;;;14.70;;
47483;SDS011;54076;50.322;18.650;2022-11-24T02:08:51;38.40;;;13.90;;
47483;SDS011;54076;50.322;18.650;2022-11-24T02:14:11;39.70;;;14.50;;
47483;SDS011;54076;50.322;18.650;2022-11-24T02:25:00;37.40;;;13.50;;
47483;SDS011;54076;50.322;18.650;2022-11-24T02:30:03;41.90;;;14.10;;
47483;SDS011;54076;50.322;18.650;2022-11-24T02:35:06;42.70;;;15.70;;
47483;SDS011;54076;50.322;18.650;2022-11-24T02:40:09;45.80;;;14.50;;
47483;SDS011;54076;50.322;18.650;2022-11-24T02:45:10;40.90;;;14.80;;
47483;SDS011;54076;50.322;18.650;2022-11-24T02:50:13;36.10;;;13.80;;
47483;SDS011;54076;50.322;18.650;2022-11-24T02:55:14;43.30;;;14.90;;
47483;SDS011;54076;50.322;18.650;2022-11-24T03:00:15;35.20;;;11.70;;
47483;SDS011;54076;50.322;18.650;2022-11-24T03:05:17;41.70;;;14.20;;
47483;SDS011;54076;50.322;18.650;2022-11-24T03:10:18;37.00;;;13.80;;
47483;SDS011;54076;50.322;18.650;2022-11-24T03:15:20;40.10;;;14.50;;
47483;SDS011;54076;50.322;18.650;2022-11-24T03:20:21;38.80;;;14.00;;
47483;SDS011;54076;50.322;18.650;2022-11-24T03:25:23;34.70;;;14.10;;
47483;SDS011;54076;50.322;18.650;2022-11-24T03:30:24;36.40;;;13.50;;
47483;SDS011;54076;50.322;18.650;2022-11-24T03:35:25;35.90;;;13.70;;
47483;SDS011;54076;50.322;18.650;2022-11-24T03:40:26;36.10;;;14.90;;
47483;SDS011;54076;50.322;18.650;2022-11-24T03:45:26;39.30;;;14.50;;
47483;SDS011;54076;50.322;18.650;2022-11-24T03:50:27;43.60;;;15.30;;
47483;SDS011;54076;50.322;18.650;2022-11-24T03:55:28;39.00;;;15.10;;
47483;SDS011;54076;50.322;18.650;2022-11-24T04:00:29;39.10;;;14.60;;
47483;SDS011;54076;50.322;18.650;2022-11-24T04:05:31;39.50;;;14.20;;
47483;SDS011;54076;50.322;18.650;2022-11-24T04:10:34;36.60;;;14.80;;
47483;SDS011;54076;50.322;18.650;2022-11-24T04:15:40;36.00;;;14.00;;
47483;SDS011;54076;50.322;18.650;2022-11-24T04:20:42;39.20;;;14.20;;
47483;SDS011;54076;50.322;18.650;2022-11-24T04:25:43;37.00;;;14.00;;
47483;SDS011;54076;50.322;18.650;2022-11-24T04:30:44;42.60;;;15.00;;
47483;SDS011;54076;50.322;18.650;2022-11-24T04:35:45;40.70;;;15.20;;
47483;SDS011;54076;50.322;18.650;2022-11-24T04:40:46;39.40;;;14.90;;
47483;SDS011;54076;50.322;18.650;2022-11-24T04:45:46;43.50;;;14.90;;
47483;SDS011;54076;50.322;18.650;2022-11-24T04:50:47;41.20;;;13.70;;
47483;SDS011;54076;50.322;18.650;2022-11-24T04:55:48;39.20;;;14.90;;
47483;SDS011;54076;50.322;18.650;2022-11-24T05:00:50;40.10;;;15.30;;
47483;SDS011;54076;50.322;18.650;2022-11-24T05:05:50;40.10;;;14.90;;
47483;SDS011;54076;50.322;18.650;2022-11-24T05:10:51;47.60;;;15.50;;
47483;SDS011;54076;50.322;18.650;2022-11-24T05:15:52;42.30;;;15.20;;
47483;SDS011;54076;50.322;18.650;2022-11-24T05:20:53;40.20;;;15.80;;
47483;SDS011;54076;50.322;18.650;2022-11-24T05:25:59;43.00;;;16.70;;
47483;SDS011;54076;50.322;18.650;2022-11-24T05:31:01;42.40;;;16.10;;
47483;SDS011;54076;50.322;18.650;2022-11-24T05:36:04;45.20;;;16.20;;
47483;SDS011;54076;50.322;18.650;2022-11-24T05:41:07;43.10;;;16.10;;
47483;SDS011;54076;50.322;18.650;2022-11-24T05:46:08;43.50;;;17.50;;
47483;SDS011;54076;50.322;18.650;2022-11-24T05:51:09;48.30;;;16.80;;
47483;SDS011;54076;50.322;18.650;2022-11-24T05:56:10;43.90;;;16.80;;
47483;SDS011;54076;50.322;18.650;2022-11-24T06:01:11;45.60;;;15.60;;
47483;SDS011;54076;50.322;18.650;2022-11-24T06:06:12;49.50;;;17.60;;
47483;SDS011;54076;50.322;18.650;2022-11-24T06:11:12;41.40;;;16.60;;
47483;SDS011;54076;50.322;18.650;2022-11-24T06:16:20;53.40;;;18.40;;
47483;SDS011;54076;50.322;18.650;2022-11-24T06:21:21;47.10;;;16.70;;
47483;SDS011;54076;50.322;18.650;2022-11-24T06:26:22;52.60;;;18.50;;
47483;SDS011;54076;50.322;18.650;2022-11-24T06:31:23;48.60;;;17.50;;
47483;SDS011;54076;50.322;18.650;2022-11-24T06:36:24;51.00;;;17.50;;
47483;SDS011;54076;50.322;18.650;2022-11-24T06:41:25;51.40;;;18.40;;
47483;SDS011;54076;50.322;18.650;2022-11-24T06:46:26;58.20;;;20.10;;
47483;SDS011;54076;50.322;18.650;2022-11-24T06:51:27;54.40;;;18.00;;
47483;SDS011;54076;50.322;18.650;2022-11-24T06:56:28;57.30;;;18.50;;
47483;SDS011;54076;50.322;18.650;2022-11-24T07:01:29;51.50;;;18.00;;
47483;SDS011;54076;50.322;18.650;2022-11-24T07:06:30;53.40;;;17.80;;
47483;SDS011;54076;50.322;18.650;2022-11-24T07:11:31;50.60;;;17.30;;
47483;SDS011;54076;50.322;18.650;2022-11-24T07:16:32;51.50;;;18.40;;
47483;SDS011;54076;50.322;18.650;2022-11-24T07:21:33;54.90;;;18.20;;
47483;SDS011;54076;50.322;18.650;2022-11-24T07:26:34;50.30;;;18.60;;
47483;SDS011;54076;50.322;18.650;2022-11-24T07:31:37;53.60;;;18.00;;
47483;SDS011;54076;50.322;18.650;2022-11-24T07:36:37;53.20;;;18.90;;
47483;SDS011;54076;50.322;18.650;2022-11-24T07:41:38;44.90;;;16.20;;
47483;SDS011;54076;50.322;18.650;2022-11-24T07:46:39;51.50;;;17.60;;
47483;SDS011;54076;50.322;18.650;2022-11-24T07:51:40;39.80;;;15.00;;
47483;SDS011;54076;50.322;18.650;2022-11-24T07:56:42;48.10;;;16.80;;
47483;SDS011;54076;50.322;18.650;2022-11-24T08:01:43;41.60;;;15.20;;
47483;SDS011;54076;50.322;18.650;2022-11-24T08:06:44;47.30;;;17.60;;
47483;SDS011;54076;50.322;18.650;2022-11-24T08:11:45;51.20;;;16.80;;
47483;SDS011;54076;50.322;18.650;2022-11-24T08:16:46;52.60;;;19.40;;
47483;SDS011;54076;50.322;18.650;2022-11-24T08:21:47;56.20;;;17.70;;
47483;SDS011;54076;50.322;18.650;2022-11-24T08:26:48;56.90;;;18.90;;
47483;SDS011;54076;50.322;18.650;2022-11-24T08:31:49;56.60;;;19.50;;
47483;SDS011;54076;50.322;18.650;2022-11-24T08:36:50;48.30;;;17.20;;
47483;SDS011;54076;50.322;18.650;2022-11-24T08:41:52;53.00;;;17.80;;
47483;SDS011;54076;50.322;18.650;2022-11-24T08:46:53;59.90;;;18.70;;
47483;SDS011;54076;50.322;18.650;2022-11-24T08:51:57;55.30;;;18.30;;
47483;SDS011;54076;50.322;18.650;2022-11-24T08:56:58;58.70;;;19.30;;
47483;SDS011;54076;50.322;18.650;2022-11-24T09:01:59;59.10;;;18.30;;
47483;SDS011;54076;50.322;18.650;2022-11-24T09:07:00;61.00;;;19.40;;
47483;SDS011;54076;50.322;18.650;2022-11-24T09:12:01;58.30;;;19.80;;
47483;SDS011;54076;50.322;18.650;2022-11-24T09:17:01;57.80;;;20.20;;
47483;SDS011;54076;50.322;18.650;2022-11-24T09:22:02;56.40;;;18.30;;
47483;SDS011;54076;50.322;18.650;2022-11-24T09:27:03;61.80;;;20.00;;
47483;SDS011;54076;50.322;18.650;2022-11-24T09:32:04;62.50;;;20.00;;
47483;SDS011;54076;50.322;18.650;2022-11-24T09:37:05;58.90;;;20.40;;
47483;SDS011;54076;50.322;18.650;2022-11-24T09:42:43;60.70;;;20.50;;
47483;SDS011;54076;50.322;18.650;2022-11-24T09:48:02;62.00;;;20.00;;
47483;SDS011;54076;50.322;18.650;2022-11-24T09:53:33;66.20;;;19.80;;
47483;SDS011;54076;50.322;18.650;2022-11-24T09:58:40;59.20;;;19.10;;
47483;SDS011;54076;50.322;18.650;2022-11-24T10:03:51;61.10;;;19.20;;
47483;SDS011;54076;50.322;18.650;2022-11-24T10:25:25;53.60;;;18.80;;
47483;SDS011;54076;50.322;18.650;2022-11-24T10:30:37;51.00;;;18.40;;
47483;SDS011;54076;50.322;18.650;2022-11-24T10:35:40;52.10;;;17.90;;
47483;SDS011;54076;50.322;18.650;2022-11-24T10:40:52;56.00;;;19.20;;
47483;SDS011;54076;50.322;18.650;2022-11-24T10:46:25;51.70;;;17.10;;
47483;SDS011;54076;50.322;18.650;2022-11-24T10:51:34;51.50;;;16.90;;
47483;SDS011;54076;50.322;18.650;2022-11-24T10:56:57;49.70;;;16.80;;
47483;SDS011;54076;50.322;18.650;2022-11-24T11:01:58;43.20;;;16.60;;
47483;SDS011;54076;50.322;18.650;2022-11-24T11:07:21;42.70;;;15.70;;
47483;SDS011;54076;50.322;18.650;2022-11-24T11:12:27;39.80;;;14.70;;
47483;SDS011;54076;50.322;18.650;2022-11-24T11:17:34;37.30;;;14.10;;
47483;SDS011;54076;50.322;18.650;2022-11-24T11:22:37;34.40;;;13.20;;
47483;SDS011;54076;50.322;18.650;2022-11-24T11:27:39;33.00;;;12.60;;
47483;SDS011;54076;50.322;18.650;2022-11-24T11:32:52;35.10;;;13.10;;
47483;SDS011;54076;50.322;18.650;2022-11-24T11:38:00;27.90;;;10.80;;
47483;SDS011;54076;50.322;18.650;2022-11-24T11:43:26;30.80;;;11.80;;
47483;SDS011;54076;50.322;18.650;2022-11-24T11:48:35;26.20;;;11.90;;
47483;SDS011;54076;50.322;18.650;2022-11-24T12:15:27;31.40;;;11.90;;
47483;SDS011;54076;50.322;18.650;2022-11-24T12:37:46;36.20;;;13.00;;
47483;SDS011;54076;50.322;18.650;2022-11-24T12:48:41;30.70;;;12.50;;
47483;SDS011;54076;50.322;18.650;2022-11-24T12:53:44;29.80;;;12.50;;
47483;SDS011;54076;50.322;18.650;2022-11-24T12:58:55;35.20;;;12.40;;
47483;SDS011;54076;50.322;18.650;2022-11-24T13:15:24;37.10;;;12.80;;
47483;SDS011;54076;50.322;18.650;2022-11-24T13:20:32;37.80;;;13.40;;
47483;SDS011;54076;50.322;18.650;2022-11-24T13:25:36;35.20;;;13.20;;
47483;SDS011;54076;50.322;18.650;2022-11-24T13:30:52;39.80;;;14.40;;
47483;SDS011;54076;50.322;18.650;2022-11-24T13:46:57;39.60;;;16.00;;
47483;SDS011;54076;50.322;18.650;2022-11-24T13:52:41;44.70;;;16.10;;
47483;SDS011;54076;50.322;18.650;2022-11-24T14:08:25;41.20;;;15.10;;
47483;SDS011;54076;50.322;18.650;2022-11-24T14:18:33;41.80;;;14.20;;
47483;SDS011;54076;50.322;18.650;2022-11-24T14:23:40;42.90;;;14.80;;
47483;SDS011;54076;50.322;18.650;2022-11-24T14:28:44;41.60;;;14.60;;
47483;SDS011;54076;50.322;18.650;2022-11-24T14:33:46;40.30;;;14.50;;
47483;SDS011;54076;50.322;18.650;2022-11-24T14:38:47;48.10;;;15.30;;
47483;SDS011;54076;50.322;18.650;2022-11-24T14:43:48;43.20;;;13.80;;
47483;SDS011;54076;50.322;18.650;2022-11-24T14:48:50;41.40;;;15.60;;
47483;SDS011;54076;50.322;18.650;2022-11-24T14:53:55;44.00;;;15.70;;
47483;SDS011;54076;50.322;18.650;2022-11-24T14:58:59;47.40;;;16.80;;
47483;SDS011;54076;50.322;18.650;2022-11-24T15:14:51;50.40;;;17.20;;
47483;SDS011;54076;50.322;18.650;2022-11-24T15:19:58;48.50;;;16.50;;
47483;SDS011;54076;50.322;18.650;2022-11-24T15:25:24;48.20;;;15.80;;
47483;SDS011;54076;50.322;18.650;2022-11-24T15:30:27;71.20;;;24.20;;
47483;SDS011;54076;50.322;18.650;2022-11-24T15:35:30;46.70;;;17.60;;
47483;SDS011;54076;50.322;18.650;2022-11-24T15:40:32;48.10;;;17.80;;
47483;SDS011;54076;50.322;18.650;2022-11-24T15:45:33;51.90;;;19.20;;
47483;SDS011;54076;50.322;18.650;2022-11-24T15:50:35;64.50;;;19.40;;
47483;SDS011;54076;50.322;18.650;2022-11-24T15:55:36;52.40;;;18.10;;
47483;SDS011;54076;50.322;18.650;2022-11-24T16:00:38;49.70;;;17.50;;
47483;SDS011;54076;50.322;18.650;2022-11-24T16:05:39;48.60;;;17.70;;
47483;SDS011;54076;50.322;18.650;2022-11-24T16:10:41;55.70;;;19.40;;
47483;SDS011;54076;50.322;18.650;2022-11-24T16:15:44;52.00;;;19.30;;
47483;SDS011;54076;50.322;18.650;2022-11-24T16:20:45;51.00;;;17.90;;
47483;SDS011;54076;50.322;18.650;2022-11-24T16:25:46;54.70;;;19.90;;
47483;SDS011;54076;50.322;18.650;2022-11-24T16:30:48;53.20;;;18.50;;
47483;SDS011;54076;50.322;18.650;2022-11-24T16:35:50;55.90;;;19.70;;
47483;SDS011;54076;50.322;18.650;2022-11-24T16:40:54;53.90;;;18.40;;
47483;SDS011;54076;50.322;18.650;2022-11-24T16:51:05;60.40;;;20.30;;
47483;SDS011;54076;50.322;18.650;2022-11-24T16:56:08;52.30;;;19.80;;
47483;SDS011;54076;50.322;18.650;2022-11-24T17:01:10;54.70;;;20.20;;
47483;SDS011;54076;50.322;18.650;2022-11-24T17:06:14;53.60;;;19.30;;
47483;SDS011;54076;50.322;18.650;2022-11-24T17:11:18;61.70;;;19.80;;
47483;SDS011;54076;50.322;18.650;2022-11-24T17:16:21;61.30;;;19.80;;
47483;SDS011;54076;50.322;18.650;2022-11-24T17:21:25;58.80;;;20.70;;
47483;SDS011;54076;50.322;18.650;2022-11-24T17:26:27;58.60;;;21.80;;
47483;SDS011;54076;50.322;18.650;2022-11-24T17:31:30;58.70;;;20.50;;
47483;SDS011;54076;50.322;18.650;2022-11-24T17:36:33;62.70;;;21.90;;
47483;SDS011;54076;50.322;18.650;2022-11-24T17:41:34;60.70;;;20.60;;
47483;SDS011;54076;50.322;18.650;2022-11-24T17:46:35;67.20;;;23.70;;
47483;SDS011;54076;50.322;18.650;2022-11-24T17:51:37;61.60;;;21.90;;
47483;SDS011;54076;50.322;18.650;2022-11-24T17:56:38;62.20;;;22.40;;
47483;SDS011;54076;50.322;18.650;2022-11-24T18:01:42;63.30;;;22.00;;
47483;SDS011;54076;50.322;18.650;2022-11-24T18:06:43;65.40;;;23.10;;
47483;SDS011;54076;50.322;18.650;2022-11-24T18:11:45;73.50;;;25.00;;
47483;SDS011;54076;50.322;18.650;2022-11-24T18:16:47;80.10;;;24.80;;
47483;SDS011;54076;50.322;18.650;2022-11-24T18:21:48;88.20;;;30.00;;
47483;SDS011;54076;50.322;18.650;2022-11-24T18:26:49;74.20;;;25.40;;
47483;SDS011;54076;50.322;18.650;2022-11-24T18:31:50;69.20;;;25.10;;
47483;SDS011;54076;50.322;18.650;2022-11-24T18:36:51;71.30;;;23.60;;
47483;SDS011;54076;50.322;18.650;2022-11-24T18:41:52;77.70;;;24.80;;
47483;SDS011;54076;50.322;18.650;2022-11-24T18:46:53;75.10;;;26.30;;
47483;SDS011;54076;50.322;18.650;2022-11-24T18:51:54;72.80;;;24.80;;
47483;SDS011;54076;50.322;18.650;2022-11-24T18:56:55;72.90;;;25.00;;
47483;SDS011;54076;50.322;18.650;2022-11-24T19:01:56;71.30;;;25.30;;
47483;SDS011;54076;50.322;18.650;2022-11-24T19:06:57;70.00;;;24.40;;
47483;SDS011;54076;50.322;18.650;2022-11-24T19:11:58;75.30;;;25.90;;
47483;SDS011;54076;50.322;18.650;2022-11-24T19:17:00;71.80;;;26.60;;
47483;SDS011;54076;50.322;18.650;2022-11-24T19:22:02;71.70;;;24.70;;
47483;SDS011;54076;50.322;18.650;2022-11-24T19:27:04;64.80;;;24.20;;
47483;SDS011;54076;50.322;18.650;2022-11-24T19:32:05;69.90;;;25.00;;
47483;SDS011;54076;50.322;18.650;2022-11-24T19:37:06;75.50;;;26.90;;
47483;SDS011;54076;50.322;18.650;2022-11-24T19:42:07;67.70;;;22.40;;
47483;SDS011;54076;50.322;18.650;2022-11-24T19:47:08;77.10;;;24.40;;
47483;SDS011;54076;50.322;18.650;2022-11-24T19:52:09;66.10;;;23.60;;
47483;SDS011;54076;50.322;18.650;2022-11-24T19:57:10;67.80;;;24.60;;
47483;SDS011;54076;50.322;18.650;2022-11-24T20:02:11;76.40;;;24.80;;
47483;SDS011;54076;50.322;18.650;2022-11-24T20:07:11;71.20;;;24.50;;
47483;SDS011;54076;50.322;18.650;2022-11-24T20:12:12;67.00;;;24.10;;
47483;SDS011;54076;50.322;18.650;2022-11-24T20:17:14;74.40;;;24.20;;
47483;SDS011;54076;50.322;18.650;2022-11-24T20:22:15;59.90;;;22.40;;
47483;SDS011;54076;50.322;18.650;2022-11-24T20:27:16;76.50;;;25.30;;
47483;SDS011;54076;50.322;18.650;2022-11-24T20:32:17;77.10;;;24.70;;
47483;SDS011;54076;50.322;18.650;2022-11-24T20:37:20;74.60;;;24.50;;
47483;SDS011;54076;50.322;18.650;2022-11-24T20:42:22;64.40;;;23.80;;
47483;SDS011;54076;50.322;18.650;2022-11-24T20:47:23;66.00;;;25.10;;
47483;SDS011;54076;50.322;18.650;2022-11-24T20:52:24;71.30;;;25.10;;
47483;SDS011;54076;50.322;18.650;2022-11-24T20:57:25;77.50;;;26.60;;
47483;SDS011;54076;50.322;18.650;2022-11-24T21:02:27;77.10;;;25.30;;
47483;SDS011;54076;50.322;18.650;2022-11-24T21:07:28;80.10;;;25.50;;
47483;SDS011;54076;50.322;18.650;2022-11-24T21:12:29;89.20;;;30.80;;
47483;SDS011;54076;50.322;18.650;2022-11-24T21:17:30;95.30;;;33.20;;
47483;SDS011;54076;50.322;18.650;2022-11-24T21:22:32;98.30;;;32.20;;
47483;SDS011;54076;50.322;18.650;2022-11-24T21:27:33;86.00;;;29.80;;
47483;SDS011;54076;50.322;18.650;2022-11-24T21:32:34;94.90;;;30.30;;
47483;SDS011;54076;50.322;18.650;2022-11-24T21:37:35;84.30;;;30.50;;
47483;SDS011;54076;50.322;18.650;2022-11-24T21:42:36;86.00;;;28.70;;
47483;SDS011;54076;50.322;18.650;2022-11-24T21:47:37;87.50;;;29.30;;
47483;SDS011;54076;50.322;18.650;2022-11-24T21:52:38;87.10;;;29.90;;
47483;SDS011;54076;50.322;18.650;2022-11-24T21:57:39;81.70;;;28.90;;
47483;SDS011;54076;50.322;18.650;2022-11-24T22:02:40;87.20;;;28.90;;
47483;SDS011;54076;50.322;18.650;2022-11-24T22:07:41;92.50;;;30.30;;
47483;SDS011;54076;50.322;18.650;2022-11-24T22:12:43;93.80;;;30.20;;
47483;SDS011;54076;50.322;18.650;2022-11-24T22:17:43;93.20;;;30.40;;
47483;SDS011;54076;50.322;18.650;2022-11-24T22:22:44;93.90;;;31.80;;
47483;SDS011;54076;50.322;18.650;2022-11-24T22:27:45;98.50;;;34.30;;
47483;SDS011;54076;50.322;18.650;2022-11-24T22:32:46;104.30;;;34.50;;
47483;SDS011;54076;50.322;18.650;2022-11-24T22:37:47;97.30;;;33.90;;
47483;SDS011;54076;50.322;18.650;2022-11-24T22:42:48;108.10;;;35.30;;
47483;SDS011;54076;50.322;18.650;2022-11-24T22:47:54;107.00;;;37.20;;
47483;SDS011;54076;50.322;18.650;2022-11-24T22:52:55;106.90;;;34.80;;
47483;SDS011;54076;50.322;18.650;2022-11-24T22:57:56;96.70;;;34.40;;
47483;SDS011;54076;50.322;18.650;2022-11-24T23:02:57;99.50;;;32.30;;
47483;SDS011;54076;50.322;18.650;2022-11-24T23:07:57;96.60;;;31.20;;
47483;SDS011;54076;50.322;18.650;2022-11-24T23:12:58;97.40;;;31.40;;
47483;SDS011;54076;50.322;18.650;2022-11-24T23:17:59;95.20;;;32.20;;
47483;SDS011;54076;50.322;18.650;2022-11-24T23:23:00;80.60;;;28.40;;
47483;SDS011;54076;50.322;18.650;2022-11-24T23:28:01;85.10;;;29.70;;
47483;SDS011;54076;50.322;18.650;2022-11-24T23:33:02;110.10;;;31.30;;
47483;SDS011;54076;50.322;18.650;2022-11-24T23:38:03;104.40;;;33.20;;
47483;SDS011;54076;50.322;18.650;2022-11-24T23:43:04;97.80;;;33.40;;
47483;SDS011;54076;50.322;18.650;2022-11-24T23:48:05;100.80;;;33.90;;
47483;SDS011;54076;50.322;18.650;2022-11-24T23:53:08;100.00;;;32.40;;
47483;SDS011;54076;50.322;18.650;2022-11-24T23:58:09;102.90;;;33.70;;
